sensor_id;sensor_type;location;lat;lon;timestamp;pressure;altitude;pressure_sealevel;temperature;humidity
40171;BME280;37650;52.790;18.268;2023-05-18T00:00:11;101456.97;;;7.03;76.16
40171;BME280;37650;52.790;18.268;2023-05-18T00:03:52;101460.48;;;6.98;76.42
40171;BME280;37650;52.790;18.268;2023-05-18T00:07:14;101462.59;;;6.93;76.67
40171;BME280;37650;52.790;18.268;2023-05-18T00:10:35;101469.79;;;6.84;76.55
40171;BME280;37650;52.790;18.268;2023-05-18T00:13:55;101471.05;;;6.76;76.88
40171;BME280;37650;52.790;18.268;2023-05-18T00:17:16;101463.92;;;6.68;77.03
40171;BME280;37650;52.790;18.268;2023-05-18T00:20:36;101467.79;;;6.62;77.32
40171;BME280;37650;52.790;18.268;2023-05-18T00:23:57;101465.36;;;6.56;77.65
40171;BME280;37650;52.790;18.268;2023-05-18T00:27:17;101470.09;;;6.51;77.88
40171;BME280;37650;52.790;18.268;2023-05-18T00:30:38;101474.64;;;6.48;78.24
40171;BME280;37650;52.790;18.268;2023-05-18T00:33:58;101478.31;;;6.45;78.45
40171;BME280;37650;52.790;18.268;2023-05-18T00:37:19;101478.30;;;6.44;78.46
40171;BME280;37650;52.790;18.268;2023-05-18T00:40:40;101483.70;;;6.43;78.70
40171;BME280;37650;52.790;18.268;2023-05-18T00:44:02;101482.33;;;6.41;78.58
40171;BME280;37650;52.790;18.268;2023-05-18T00:47:23;101483.02;;;6.38;78.68
40171;BME280;37650;52.790;18.268;2023-05-18T00:50:44;101484.25;;;6.33;78.80
40171;BME280;37650;52.790;18.268;2023-05-18T00:54:06;101484.43;;;6.30;78.84
40171;BME280;37650;52.790;18.268;2023-05-18T00:57:27;101484.27;;;6.27;78.91
40171;BME280;37650;52.790;18.268;2023-05-18T01:00:47;101489.14;;;6.26;78.98
40171;BME280;37650;52.790;18.268;2023-05-18T01:04:08;101495.61;;;6.23;79.14
40171;BME280;37650;52.790;18.268;2023-05-18T01:07:29;101495.95;;;6.22;79.33
40171;BME280;37650;52.790;18.268;2023-05-18T01:10:56;101498.73;;;6.22;79.59
40171;BME280;37650;52.790;18.268;2023-05-18T01:18:10;101505.35;;;6.26;79.83
40171;BME280;37650;52.790;18.268;2023-05-18T01:21:55;101503.08;;;6.32;79.86
40171;BME280;37650;52.790;18.268;2023-05-18T01:28:44;101509.16;;;6.41;79.78
40171;BME280;37650;52.790;18.268;2023-05-18T01:32:06;101507.41;;;6.43;79.78
40171;BME280;37650;52.790;18.268;2023-05-18T01:35:27;101507.95;;;6.42;79.87
40171;BME280;37650;52.790;18.268;2023-05-18T01:38:48;101510.04;;;6.40;80.07
40171;BME280;37650;52.790;18.268;2023-05-18T01:42:19;101507.95;;;6.37;79.85
40171;BME280;37650;52.790;18.268;2023-05-18T01:45:47;101517.02;;;6.34;80.18
40171;BME280;37650;52.790;18.268;2023-05-18T01:49:16;101520.16;;;6.30;80.18
40171;BME280;37650;52.790;18.268;2023-05-18T01:53:05;101524.35;;;6.27;80.28
40171;BME280;37650;52.790;18.268;2023-05-18T01:56:29;101523.48;;;6.20;80.25
40171;BME280;37650;52.790;18.268;2023-05-18T01:59:50;101524.36;;;6.15;80.03
40171;BME280;37650;52.790;18.268;2023-05-18T02:03:13;101535.52;;;6.13;80.26
40171;BME280;37650;52.790;18.268;2023-05-18T02:06:34;101532.91;;;6.14;80.60
40171;BME280;37650;52.790;18.268;2023-05-18T02:09:56;101528.89;;;6.15;80.64
40171;BME280;37650;52.790;18.268;2023-05-18T02:13:16;101530.96;;;6.16;80.95
40171;BME280;37650;52.790;18.268;2023-05-18T02:16:37;101525.40;;;6.16;80.98
40171;BME280;37650;52.790;18.268;2023-05-18T02:19:58;101530.98;;;6.13;81.10
40171;BME280;37650;52.790;18.268;2023-05-18T02:23:19;101529.77;;;6.12;81.45
40171;BME280;37650;52.790;18.268;2023-05-18T02:26:39;101522.63;;;6.09;81.31
40171;BME280;37650;52.790;18.268;2023-05-18T02:30:00;101524.55;;;6.08;81.71
40171;BME280;37650;52.790;18.268;2023-05-18T02:33:23;101525.40;;;6.09;81.79
40171;BME280;37650;52.790;18.268;2023-05-18T02:36:45;101520.01;;;6.12;82.01
40171;BME280;37650;52.790;18.268;2023-05-18T02:40:11;101524.70;;;6.15;81.90
40171;BME280;37650;52.790;18.268;2023-05-18T02:43:33;101523.30;;;6.15;82.24
40171;BME280;37650;52.790;18.268;2023-05-18T02:46:54;101528.70;;;6.14;82.09
40171;BME280;37650;52.790;18.268;2023-05-18T02:50:15;101531.16;;;6.12;82.09
40171;BME280;37650;52.790;18.268;2023-05-18T02:53:36;101535.15;;;6.09;82.38
40171;BME280;37650;52.790;18.268;2023-05-18T02:57:01;101542.48;;;6.08;82.62
40171;BME280;37650;52.790;18.268;2023-05-18T03:00:42;101548.41;;;6.07;82.66
40171;BME280;37650;52.790;18.268;2023-05-18T03:04:03;101554.16;;;6.03;82.83
40171;BME280;37650;52.790;18.268;2023-05-18T03:07:23;101559.02;;;6.03;82.80
40171;BME280;37650;52.790;18.268;2023-05-18T03:10:48;101563.56;;;6.07;83.00
40171;BME280;37650;52.790;18.268;2023-05-18T03:14:10;101564.60;;;6.09;83.21
40171;BME280;37650;52.790;18.268;2023-05-18T03:17:31;101565.83;;;6.08;83.16
40171;BME280;37650;52.790;18.268;2023-05-18T03:20:53;101565.46;;;6.05;83.38
40171;BME280;37650;52.790;18.268;2023-05-18T03:24:13;101568.08;;;6.05;83.43
40171;BME280;37650;52.790;18.268;2023-05-18T03:27:37;101575.05;;;6.06;83.86
40171;BME280;37650;52.790;18.268;2023-05-18T03:30:58;101577.84;;;6.06;83.55
40171;BME280;37650;52.790;18.268;2023-05-18T03:34:19;101583.06;;;6.06;83.81
40171;BME280;37650;52.790;18.268;2023-05-18T03:37:41;101587.23;;;6.10;84.03
40171;BME280;37650;52.790;18.268;2023-05-18T03:41:01;101588.13;;;6.14;84.16
40171;BME280;37650;52.790;18.268;2023-05-18T03:44:22;101589.34;;;6.21;84.12
40171;BME280;37650;52.790;18.268;2023-05-18T03:47:43;101591.95;;;6.22;83.91
40171;BME280;37650;52.790;18.268;2023-05-18T03:51:04;101598.75;;;6.23;84.51
40171;BME280;37650;52.790;18.268;2023-05-18T03:54:25;101603.46;;;6.27;84.27
40171;BME280;37650;52.790;18.268;2023-05-18T03:57:46;101602.24;;;6.24;84.20
40171;BME280;37650;52.790;18.268;2023-05-18T04:01:07;101610.06;;;6.21;84.14
40171;BME280;37650;52.790;18.268;2023-05-18T04:04:28;101610.95;;;6.20;84.44
40171;BME280;37650;52.790;18.268;2023-05-18T04:07:50;101614.09;;;6.19;84.61
40171;BME280;37650;52.790;18.268;2023-05-18T04:11:10;101615.64;;;6.20;84.69
40171;BME280;37650;52.790;18.268;2023-05-18T04:14:31;101620.36;;;6.22;84.74
40171;BME280;37650;52.790;18.268;2023-05-18T04:17:52;101628.38;;;6.30;85.06
40171;BME280;37650;52.790;18.268;2023-05-18T04:21:13;101633.61;;;6.39;85.12
40171;BME280;37650;52.790;18.268;2023-05-18T04:24:35;101635.35;;;6.43;85.14
40171;BME280;37650;52.790;18.268;2023-05-18T04:27:56;101635.52;;;6.45;85.16
40171;BME280;37650;52.790;18.268;2023-05-18T04:31:18;101636.23;;;6.48;85.38
40171;BME280;37650;52.790;18.268;2023-05-18T04:34:38;101638.13;;;6.57;85.75
40171;BME280;37650;52.790;18.268;2023-05-18T04:38:01;101643.01;;;6.63;85.36
40171;BME280;37650;52.790;18.268;2023-05-18T04:41:22;101646.84;;;6.71;85.63
40171;BME280;37650;52.790;18.268;2023-05-18T04:44:43;101649.09;;;6.81;85.39
40171;BME280;37650;52.790;18.268;2023-05-18T04:48:05;101650.98;;;6.94;85.21
40171;BME280;37650;52.790;18.268;2023-05-18T04:51:25;101653.40;;;7.10;85.26
40171;BME280;37650;52.790;18.268;2023-05-18T04:54:46;101657.19;;;7.28;85.34
40171;BME280;37650;52.790;18.268;2023-05-18T04:58:07;101655.57;;;7.41;84.94
40171;BME280;37650;52.790;18.268;2023-05-18T05:01:30;101656.74;;;7.51;84.68
40171;BME280;37650;52.790;18.268;2023-05-18T05:04:51;101660.17;;;7.66;84.63
40171;BME280;37650;52.790;18.268;2023-05-18T05:08:11;101666.56;;;7.82;84.48
40171;BME280;37650;52.790;18.268;2023-05-18T05:11:32;101667.17;;;7.95;83.81
40171;BME280;37650;52.790;18.268;2023-05-18T05:14:53;101664.11;;;8.12;83.74
40171;BME280;37650;52.790;18.268;2023-05-18T05:18:14;101664.69;;;8.30;83.38
40171;BME280;37650;52.790;18.268;2023-05-18T05:21:35;101666.85;;;8.46;82.88
40171;BME280;37650;52.790;18.268;2023-05-18T05:24:56;101667.29;;;8.58;82.91
40171;BME280;37650;52.790;18.268;2023-05-18T05:28:17;101669.90;;;8.79;82.89
40171;BME280;37650;52.790;18.268;2023-05-18T05:31:38;101669.17;;;8.99;82.54
40171;BME280;37650;52.790;18.268;2023-05-18T05:34:59;101674.14;;;9.11;81.93
40171;BME280;37650;52.790;18.268;2023-05-18T05:38:20;101674.88;;;9.23;81.70
40171;BME280;37650;52.790;18.268;2023-05-18T05:41:40;101678.80;;;9.32;81.05
40171;BME280;37650;52.790;18.268;2023-05-18T05:45:01;101682.66;;;9.47;80.98
40171;BME280;37650;52.790;18.268;2023-05-18T05:48:23;101679.40;;;9.56;80.87
40171;BME280;37650;52.790;18.268;2023-05-18T05:51:44;101677.96;;;9.73;80.61
40171;BME280;37650;52.790;18.268;2023-05-18T05:55:06;101681.15;;;9.83;80.17
40171;BME280;37650;52.790;18.268;2023-05-18T05:58:27;101681.80;;;9.99;79.80
40171;BME280;37650;52.790;18.268;2023-05-18T06:01:52;101681.24;;;10.15;79.12
40171;BME280;37650;52.790;18.268;2023-05-18T06:05:14;101679.52;;;10.25;78.34
40171;BME280;37650;52.790;18.268;2023-05-18T06:08:35;101679.40;;;10.33;78.29
40171;BME280;37650;52.790;18.268;2023-05-18T06:11:56;101679.80;;;10.53;77.97
40171;BME280;37650;52.790;18.268;2023-05-18T06:15:18;101679.80;;;10.73;77.40
40171;BME280;37650;52.790;18.268;2023-05-18T06:18:38;101679.81;;;10.73;76.76
40171;BME280;37650;52.790;18.268;2023-05-18T06:21:59;101684.13;;;10.88;76.45
40171;BME280;37650;52.790;18.268;2023-05-18T06:25:22;101682.62;;;11.12;76.10
40171;BME280;37650;52.790;18.268;2023-05-18T06:28:57;101680.56;;;11.45;76.03
40171;BME280;37650;52.790;18.268;2023-05-18T06:32:22;101683.86;;;11.74;75.11
40171;BME280;37650;52.790;18.268;2023-05-18T06:35:47;101684.38;;;11.92;74.26
40171;BME280;37650;52.790;18.268;2023-05-18T06:39:07;101689.67;;;12.14;73.29
40171;BME280;37650;52.790;18.268;2023-05-18T06:42:29;101690.16;;;12.23;72.22
40171;BME280;37650;52.790;18.268;2023-05-18T06:46:20;101694.17;;;12.24;71.41
40171;BME280;37650;52.790;18.268;2023-05-18T06:49:43;101698.89;;;12.49;71.50
40171;BME280;37650;52.790;18.268;2023-05-18T06:53:05;101695.45;;;12.81;71.50
40171;BME280;37650;52.790;18.268;2023-05-18T06:56:26;101695.11;;;12.94;69.64
40171;BME280;37650;52.790;18.268;2023-05-18T06:59:47;101700.20;;;12.88;68.98
40171;BME280;37650;52.790;18.268;2023-05-18T07:03:13;101692.88;;;13.20;68.66
40171;BME280;37650;52.790;18.268;2023-05-18T07:06:33;101693.80;;;13.31;67.54
40171;BME280;37650;52.790;18.268;2023-05-18T07:09:55;101693.73;;;13.39;66.71
40171;BME280;37650;52.790;18.268;2023-05-18T07:13:18;101691.09;;;13.82;67.49
40171;BME280;37650;52.790;18.268;2023-05-18T07:16:38;101696.04;;;14.11;65.68
40171;BME280;37650;52.790;18.268;2023-05-18T07:19:59;101700.48;;;14.55;66.05
40171;BME280;37650;52.790;18.268;2023-05-18T07:23:19;101701.97;;;15.05;65.25
40171;BME280;37650;52.790;18.268;2023-05-18T07:26:40;101698.73;;;15.12;62.35
40171;BME280;37650;52.790;18.268;2023-05-18T07:30:01;101702.92;;;15.13;61.67
40171;BME280;37650;52.790;18.268;2023-05-18T07:33:21;101701.61;;;15.35;61.17
40171;BME280;37650;52.790;18.268;2023-05-18T07:36:42;101699.97;;;15.57;60.77
40171;BME280;37650;52.790;18.268;2023-05-18T07:40:03;101700.31;;;15.57;58.15
40171;BME280;37650;52.790;18.268;2023-05-18T07:43:24;101705.25;;;15.57;58.87
40171;BME280;37650;52.790;18.268;2023-05-18T07:46:45;101704.35;;;15.81;57.69
40171;BME280;37650;52.790;18.268;2023-05-18T07:50:05;101707.08;;;15.84;57.31
40171;BME280;37650;52.790;18.268;2023-05-18T07:53:26;101705.96;;;16.13;58.52
40171;BME280;37650;52.790;18.268;2023-05-18T07:56:47;101704.70;;;16.54;57.22
40171;BME280;37650;52.790;18.268;2023-05-18T08:00:09;101701.38;;;16.66;56.46
40171;BME280;37650;52.790;18.268;2023-05-18T08:03:32;101705.44;;;16.66;55.55
40171;BME280;37650;52.790;18.268;2023-05-18T08:06:53;101704.45;;;16.90;55.45
40171;BME280;37650;52.790;18.268;2023-05-18T08:10:15;101706.58;;;17.31;55.28
40171;BME280;37650;52.790;18.268;2023-05-18T08:13:35;101700.11;;;17.60;54.35
40171;BME280;37650;52.790;18.268;2023-05-18T08:16:56;101696.13;;;17.66;54.00
40171;BME280;37650;52.790;18.268;2023-05-18T08:20:16;101697.02;;;17.78;53.68
40171;BME280;37650;52.790;18.268;2023-05-18T08:23:38;101694.56;;;17.85;51.81
40171;BME280;37650;52.790;18.268;2023-05-18T08:26:59;101684.83;;;17.53;51.60
40171;BME280;37650;52.790;18.268;2023-05-18T08:30:19;101691.98;;;17.87;52.32
40171;BME280;37650;52.790;18.268;2023-05-18T08:33:40;101690.32;;;18.07;50.93
40171;BME280;37650;52.790;18.268;2023-05-18T08:37:01;101692.67;;;18.06;49.38
40171;BME280;37650;52.790;18.268;2023-05-18T08:40:25;101694.42;;;18.02;49.66
40171;BME280;37650;52.790;18.268;2023-05-18T08:44:21;101691.13;;;18.34;49.76
40171;BME280;37650;52.790;18.268;2023-05-18T08:47:43;101694.01;;;18.41;48.69
40171;BME280;37650;52.790;18.268;2023-05-18T08:51:05;101698.90;;;18.79;49.22
40171;BME280;37650;52.790;18.268;2023-05-18T08:54:29;101696.45;;;18.67;46.50
40171;BME280;37650;52.790;18.268;2023-05-18T08:57:54;101692.86;;;18.17;46.41
40171;BME280;37650;52.790;18.268;2023-05-18T09:01:15;101697.20;;;17.89;46.14
40171;BME280;37650;52.790;18.268;2023-05-18T09:04:37;101691.30;;;17.86;47.38
40171;BME280;37650;52.790;18.268;2023-05-18T09:07:58;101685.64;;;18.30;47.35
40171;BME280;37650;52.790;18.268;2023-05-18T09:11:19;101687.71;;;17.87;46.21
40171;BME280;37650;52.790;18.268;2023-05-18T09:14:42;101690.00;;;17.76;47.86
40171;BME280;37650;52.790;18.268;2023-05-18T09:18:02;101686.64;;;17.83;48.26
40171;BME280;37650;52.790;18.268;2023-05-18T09:21:23;101688.04;;;18.14;48.74
40171;BME280;37650;52.790;18.268;2023-05-18T09:24:44;101691.75;;;18.43;47.37
40171;BME280;37650;52.790;18.268;2023-05-18T09:28:05;101694.22;;;18.58;47.93
40171;BME280;37650;52.790;18.268;2023-05-18T09:31:25;101692.66;;;18.93;46.89
40171;BME280;37650;52.790;18.268;2023-05-18T09:34:47;101697.20;;;18.87;47.05
40171;BME280;37650;52.790;18.268;2023-05-18T09:38:08;101695.95;;;18.91;47.15
40171;BME280;37650;52.790;18.268;2023-05-18T09:41:29;101681.64;;;19.06;47.30
40171;BME280;37650;52.790;18.268;2023-05-18T09:44:50;101681.61;;;19.14;47.57
40171;BME280;37650;52.790;18.268;2023-05-18T09:48:11;101681.50;;;18.85;45.90
40171;BME280;37650;52.790;18.268;2023-05-18T09:51:36;101684.11;;;18.93;46.25
40171;BME280;37650;52.790;18.268;2023-05-18T09:54:57;101679.17;;;19.13;45.78
40171;BME280;37650;52.790;18.268;2023-05-18T09:58:20;101677.81;;;18.91;46.40
40171;BME280;37650;52.790;18.268;2023-05-18T10:02:01;101676.73;;;19.19;46.62
40171;BME280;37650;52.790;18.268;2023-05-18T10:05:25;101671.45;;;19.84;46.52
40171;BME280;37650;52.790;18.268;2023-05-18T10:08:47;101674.28;;;19.58;44.56
40171;BME280;37650;52.790;18.268;2023-05-18T10:12:16;101676.08;;;19.34;45.82
40171;BME280;37650;52.790;18.268;2023-05-18T10:15:46;101669.12;;;19.68;44.92
40171;BME280;37650;52.790;18.268;2023-05-18T10:19:07;101665.27;;;20.15;45.21
40171;BME280;37650;52.790;18.268;2023-05-18T10:22:34;101660.52;;;20.10;44.78
40171;BME280;37650;52.790;18.268;2023-05-18T10:25:56;101664.65;;;19.85;43.86
40171;BME280;37650;52.790;18.268;2023-05-18T10:29:17;101662.70;;;19.75;43.73
40171;BME280;37650;52.790;18.268;2023-05-18T10:32:38;101660.48;;;20.02;44.22
40171;BME280;37650;52.790;18.268;2023-05-18T10:36:02;101663.50;;;19.99;44.01
40171;BME280;37650;52.790;18.268;2023-05-18T10:39:25;101666.01;;;19.66;43.61
40171;BME280;37650;52.790;18.268;2023-05-18T10:42:46;101665.70;;;19.72;43.24
40171;BME280;37650;52.790;18.268;2023-05-18T10:46:08;101665.00;;;19.91;42.62
40171;BME280;37650;52.790;18.268;2023-05-18T10:49:30;101661.55;;;20.14;42.05
40171;BME280;37650;52.790;18.268;2023-05-18T10:52:52;101666.42;;;20.38;42.26
40171;BME280;37650;52.790;18.268;2023-05-18T10:56:16;101668.37;;;20.36;43.05
40171;BME280;37650;52.790;18.268;2023-05-18T10:59:41;101662.40;;;20.52;42.33
40171;BME280;37650;52.790;18.268;2023-05-18T11:03:03;101662.81;;;20.42;41.50
40171;BME280;37650;52.790;18.268;2023-05-18T11:06:27;101660.69;;;20.60;42.34
40171;BME280;37650;52.790;18.268;2023-05-18T11:09:48;101655.64;;;20.49;42.20
40171;BME280;37650;52.790;18.268;2023-05-18T11:13:09;101652.89;;;20.26;41.76
40171;BME280;37650;52.790;18.268;2023-05-18T11:16:34;101645.29;;;20.00;41.37
40171;BME280;37650;52.790;18.268;2023-05-18T11:23:31;101648.30;;;20.18;42.07
40171;BME280;37650;52.790;18.268;2023-05-18T11:27:00;101643.64;;;20.44;41.47
40171;BME280;37650;52.790;18.268;2023-05-18T11:30:29;101646.66;;;20.60;40.54
40171;BME280;37650;52.790;18.268;2023-05-18T11:34:32;101638.92;;;20.82;40.99
40171;BME280;37650;52.790;18.268;2023-05-18T11:41:05;101646.89;;;21.44;40.74
40171;BME280;37650;52.790;18.268;2023-05-18T11:44:28;101641.70;;;21.61;40.90
40171;BME280;37650;52.790;18.268;2023-05-18T11:47:55;101641.73;;;21.49;40.54
40171;BME280;37650;52.790;18.268;2023-05-18T11:51:16;101641.77;;;21.46;39.90
40171;BME280;37650;52.790;18.268;2023-05-18T11:54:43;101640.56;;;21.33;39.47
40171;BME280;37650;52.790;18.268;2023-05-18T11:58:06;101642.30;;;20.94;39.50
40171;BME280;37650;52.790;18.268;2023-05-18T12:01:28;101635.86;;;21.20;40.28
40171;BME280;37650;52.790;18.268;2023-05-18T12:04:52;101641.20;;;21.66;40.38
40171;BME280;37650;52.790;18.268;2023-05-18T12:08:16;101641.06;;;21.85;39.35
40171;BME280;37650;52.790;18.268;2023-05-18T12:11:36;101635.40;;;21.59;38.41
40171;BME280;37650;52.790;18.268;2023-05-18T12:14:59;101636.17;;;21.69;38.64
40171;BME280;37650;52.790;18.268;2023-05-18T12:18:20;101639.00;;;21.07;39.10
40171;BME280;37650;52.790;18.268;2023-05-18T12:21:40;101636.02;;;20.82;39.70
40171;BME280;37650;52.790;18.268;2023-05-18T12:25:01;101638.09;;;20.59;40.06
40171;BME280;37650;52.790;18.268;2023-05-18T12:28:22;101634.02;;;21.29;40.67
40171;BME280;37650;52.790;18.268;2023-05-18T12:31:43;101634.58;;;21.47;39.00
40171;BME280;37650;52.790;18.268;2023-05-18T12:35:04;101634.06;;;21.50;39.39
40171;BME280;37650;52.790;18.268;2023-05-18T12:38:25;101633.08;;;21.25;39.19
40171;BME280;37650;52.790;18.268;2023-05-18T12:41:49;101631.09;;;21.05;39.54
40171;BME280;37650;52.790;18.268;2023-05-18T12:45:10;101627.52;;;21.14;39.09
40171;BME280;37650;52.790;18.268;2023-05-18T12:48:41;101622.59;;;21.04;38.60
40171;BME280;37650;52.790;18.268;2023-05-18T12:52:11;101623.67;;;21.21;39.04
40171;BME280;37650;52.790;18.268;2023-05-18T12:55:32;101624.61;;;21.32;38.45
40171;BME280;37650;52.790;18.268;2023-05-18T12:58:59;101620.73;;;21.28;38.40
40171;BME280;37650;52.790;18.268;2023-05-18T13:02:35;101623.34;;;21.49;37.88
40171;BME280;37650;52.790;18.268;2023-05-18T13:06:04;101624.01;;;21.58;38.17
40171;BME280;37650;52.790;18.268;2023-05-18T13:09:25;101624.73;;;21.58;38.72
40171;BME280;37650;52.790;18.268;2023-05-18T13:12:47;101626.46;;;21.62;38.01
40171;BME280;37650;52.790;18.268;2023-05-18T13:16:15;101618.55;;;21.29;37.02
40171;BME280;37650;52.790;18.268;2023-05-18T13:19:35;101623.36;;;21.03;37.78
40171;BME280;37650;52.790;18.268;2023-05-18T13:22:57;101616.79;;;21.17;38.21
40171;BME280;37650;52.790;18.268;2023-05-18T13:26:23;101621.83;;;21.25;37.88
40171;BME280;37650;52.790;18.268;2023-05-18T13:29:44;101621.70;;;20.86;38.48
40171;BME280;37650;52.790;18.268;2023-05-18T13:33:05;101621.04;;;20.68;39.12
40171;BME280;37650;52.790;18.268;2023-05-18T13:36:29;101622.41;;;20.44;38.94
40171;BME280;37650;52.790;18.268;2023-05-18T13:39:53;101626.52;;;20.35;39.61
40171;BME280;37650;52.790;18.268;2023-05-18T13:43:13;101615.77;;;20.51;38.99
40171;BME280;37650;52.790;18.268;2023-05-18T13:46:34;101612.47;;;20.62;39.38
40171;BME280;37650;52.790;18.268;2023-05-18T13:49:56;101609.77;;;20.50;39.17
40171;BME280;37650;52.790;18.268;2023-05-18T13:53:17;101610.77;;;20.11;39.16
40171;BME280;37650;52.790;18.268;2023-05-18T13:56:38;101612.30;;;19.97;39.80
40171;BME280;37650;52.790;18.268;2023-05-18T13:59:58;101608.05;;;20.06;39.21
40171;BME280;37650;52.790;18.268;2023-05-18T14:03:32;101608.84;;;19.96;39.65
40171;BME280;37650;52.790;18.268;2023-05-18T14:06:53;101607.36;;;19.84;39.64
40171;BME280;37650;52.790;18.268;2023-05-18T14:10:15;101606.14;;;19.64;39.99
40171;BME280;37650;52.790;18.268;2023-05-18T14:13:35;101603.30;;;19.67;40.35
40171;BME280;37650;52.790;18.268;2023-05-18T14:16:56;101601.58;;;19.92;40.58
40171;BME280;37650;52.790;18.268;2023-05-18T14:20:17;101600.55;;;20.03;40.10
40171;BME280;37650;52.790;18.268;2023-05-18T14:23:38;101602.27;;;19.67;39.89
40171;BME280;37650;52.790;18.268;2023-05-18T14:26:59;101599.80;;;19.27;40.62
40171;BME280;37650;52.790;18.268;2023-05-18T14:30:20;101598.70;;;19.05;41.17
40171;BME280;37650;52.790;18.268;2023-05-18T14:33:40;101599.45;;;19.07;41.62
40171;BME280;37650;52.790;18.268;2023-05-18T14:37:01;101602.56;;;19.22;41.76
40171;BME280;37650;52.790;18.268;2023-05-18T14:40:21;101601.13;;;19.42;41.99
40171;BME280;37650;52.790;18.268;2023-05-18T14:43:41;101593.04;;;19.51;41.76
40171;BME280;37650;52.790;18.268;2023-05-18T14:47:02;101599.26;;;19.47;41.52
40171;BME280;37650;52.790;18.268;2023-05-18T14:50:23;101603.09;;;19.65;41.91
40171;BME280;37650;52.790;18.268;2023-05-18T14:53:43;101595.16;;;19.76;41.09
40171;BME280;37650;52.790;18.268;2023-05-18T14:57:04;101597.02;;;19.84;41.35
40171;BME280;37650;52.790;18.268;2023-05-18T15:00:24;101595.84;;;19.92;41.17
40171;BME280;37650;52.790;18.268;2023-05-18T15:03:45;101588.66;;;19.74;40.96
40171;BME280;37650;52.790;18.268;2023-05-18T15:07:05;101587.14;;;19.63;40.89
40171;BME280;37650;52.790;18.268;2023-05-18T15:10:26;101586.15;;;19.42;40.96
40171;BME280;37650;52.790;18.268;2023-05-18T15:13:47;101578.61;;;19.44;41.60
40171;BME280;37650;52.790;18.268;2023-05-18T15:17:08;101585.55;;;19.37;41.41
40171;BME280;37650;52.790;18.268;2023-05-18T15:20:29;101585.85;;;19.05;41.52
40171;BME280;37650;52.790;18.268;2023-05-18T15:23:50;101595.91;;;18.83;41.60
40171;BME280;37650;52.790;18.268;2023-05-18T15:27:10;101592.64;;;18.64;42.10
40171;BME280;37650;52.790;18.268;2023-05-18T15:30:31;101595.39;;;18.73;42.53
40171;BME280;37650;52.790;18.268;2023-05-18T15:33:52;101595.27;;;18.62;42.29
40171;BME280;37650;52.790;18.268;2023-05-18T15:37:12;101598.92;;;18.45;42.27
40171;BME280;37650;52.790;18.268;2023-05-18T15:40:33;101592.30;;;18.39;42.88
40171;BME280;37650;52.790;18.268;2023-05-18T15:43:53;101589.40;;;18.43;42.75
40171;BME280;37650;52.790;18.268;2023-05-18T15:47:14;101592.92;;;18.30;42.86
40171;BME280;37650;52.790;18.268;2023-05-18T15:50:35;101596.24;;;18.24;43.35
40171;BME280;37650;52.790;18.268;2023-05-18T15:53:55;101595.09;;;18.26;43.93
40171;BME280;37650;52.790;18.268;2023-05-18T15:57:16;101591.92;;;18.15;43.52
40171;BME280;37650;52.790;18.268;2023-05-18T16:00:37;101595.05;;;17.98;43.18
40171;BME280;37650;52.790;18.268;2023-05-18T16:03:57;101596.97;;;17.91;43.63
40171;BME280;37650;52.790;18.268;2023-05-18T16:07:18;101594.05;;;17.93;43.68
40171;BME280;37650;52.790;18.268;2023-05-18T16:10:38;101591.64;;;17.84;43.38
40171;BME280;37650;52.790;18.268;2023-05-18T16:13:59;101590.42;;;17.69;43.68
40171;BME280;37650;52.790;18.268;2023-05-18T16:17:20;101590.04;;;17.69;43.94
40171;BME280;37650;52.790;18.268;2023-05-18T16:20:40;101595.11;;;17.59;43.53
40171;BME280;37650;52.790;18.268;2023-05-18T16:24:00;101596.38;;;17.51;43.39
40171;BME280;37650;52.790;18.268;2023-05-18T16:27:21;101596.77;;;17.39;43.52
40171;BME280;37650;52.790;18.268;2023-05-18T16:30:41;101597.60;;;17.36;44.27
40171;BME280;37650;52.790;18.268;2023-05-18T16:34:02;101597.21;;;17.33;44.24
40171;BME280;37650;52.790;18.268;2023-05-18T16:37:24;101599.36;;;17.25;44.11
40171;BME280;37650;52.790;18.268;2023-05-18T16:40:44;101595.96;;;17.14;44.34
40171;BME280;37650;52.790;18.268;2023-05-18T16:44:05;101600.80;;;16.97;44.15
40171;BME280;37650;52.790;18.268;2023-05-18T16:47:25;101601.30;;;16.82;44.45
40171;BME280;37650;52.790;18.268;2023-05-18T16:50:46;101602.04;;;16.77;44.64
40171;BME280;37650;52.790;18.268;2023-05-18T16:54:06;101602.98;;;16.71;44.81
40171;BME280;37650;52.790;18.268;2023-05-18T16:57:27;101602.66;;;16.67;45.46
40171;BME280;37650;52.790;18.268;2023-05-18T17:00:49;101603.68;;;16.68;45.40
40171;BME280;37650;52.790;18.268;2023-05-18T17:04:09;101606.55;;;16.58;45.22
40171;BME280;37650;52.790;18.268;2023-05-18T17:07:29;101603.88;;;16.50;45.57
40171;BME280;37650;52.790;18.268;2023-05-18T17:10:50;101605.77;;;16.48;46.28
40171;BME280;37650;52.790;18.268;2023-05-18T17:14:10;101605.05;;;16.47;46.79
40171;BME280;37650;52.790;18.268;2023-05-18T17:17:31;101605.05;;;16.47;46.83
40171;BME280;37650;52.790;18.268;2023-05-18T17:20:51;101604.17;;;16.47;47.36
40171;BME280;37650;52.790;18.268;2023-05-18T17:24:12;101608.05;;;16.44;47.49
40171;BME280;37650;52.790;18.268;2023-05-18T17:27:33;101612.88;;;16.38;47.89
40171;BME280;37650;52.790;18.268;2023-05-18T17:30:53;101610.06;;;16.33;47.90
40171;BME280;37650;52.790;18.268;2023-05-18T17:34:14;101614.45;;;16.22;48.23
40171;BME280;37650;52.790;18.268;2023-05-18T17:37:35;101613.30;;;16.11;48.62
40171;BME280;37650;52.790;18.268;2023-05-18T17:40:55;101614.66;;;16.08;48.88